航空気象通報

ウインドサーファーのための航空気象通報による風予報です。

8/5-8/7の航空気象通報

2017年08月05日 21時14分14秒 | TAF
羽田空港
TAF RJTT 051105Z 0512/0618 18008KT 9999 FEW010 BKN030
  TEMPO 0513/0515 4000 BR FEW005 BKN008
  BECMG 0515/0517 04006KT
  TEMPO 0515/0523 3000 -SHRA BR FEW003 BKN005
  BECMG 0600/0603 10006KT
  BECMG 0603/0606 18014KT
日本時間5日21-24時:180度から8ノットの風
6日00-02時:風が変化
02-09時:040度から6ノットの風
09-12時:風が変化
12時:100度から6ノットの風
12-15時:風が変化
15時-7日03時:180度から14ノットの風

静岡空港
TAF RJNS 051110Z 0512/0618 31004KT 8000 FEW004 BKN006
  TEMPO 0512/0521 4000 BR FEW002 BKN004
  BECMG 0521/0523 FEW010 SCT030
  BECMG 0600/0603 18010KT
  BECMG 0609/0612 34004KT
  TEMPO 0612/0618 4000 BR FEW005 BKN008
日本時間5日21時-6日06時:310度から4ノットの風
09-12時:風が変化
12-18時:180度から10ノットの風
18-21時:風が変化
21時-7日03時:340度から4ノットの風

福岡空港
TAF RJFF 051107Z 0512/0618 09011KT 9999 FEW030
  TEMPO 0600/0606 07020G30KT
  BECMG 0606/0609 02020KT
  TEMPO 0606/0615 05020G30KT
  TEMPO 0615/0618 36025G35KT 4000 SHRA BR
日本時間5日21時-6日15時:090度から11ノットの風
但し、6日09-15時の間:時々070度から20ノット、突風30ノット
15-18時:風が変化
18時-7日03時:020度から20ノットの風
但し、6日15-24時の間:時々050度から20ノット、突風30ノット
但し、7日00-03時の間:時々360度から25ノット、突風35ノット

那覇空港
TAF ROAH 051105Z 0512/0618 24018KT 9999 FEW015 SCT030
  TEMPO 0600/0606 4000 TSRA FEW010 BKN020 FEW025CB
日本時間5日21時-7日03時:240度から18ノットの風

石垣空港
TAF ROIG 051107Z 0512/0618 22012KT 9999 FEW010 SCT020
日本時間5日21時-7日03時:220度から12ノットの風

マウイのカフルイ空港
PHOG 051120Z 0512/0612 06011KT P6SM FEW030 SCT050
  FM051900 06014G20KT P6SM FEW030 SCT050
  FM052100 06018G28KT P6SM FEW030 SCT050
  FM060500 06014G20KT P6SM FEW030 SCT050
ハワイ時間5日02-09時:060度から11ノットの風
09-11時:060度から14ノット、突風20ノット
11-19時:060度から18ノット、突風28ノット
19時-6日02時:060度から14ノット、突風20ノット

サイパン空港
TAF PGSN 051120Z 0512/0612 20005KT P6SM VCSH SCT022 BKN110
マリアナ時間5日22時-7日22時:200度から5ノットの風
ジャンル:
ウェブログ
コメント   この記事についてブログを書く
この記事をはてなブックマークに追加
« 8/4-8/6の航空気象通報 | トップ | 8/6-8/8の航空気象通報 »
最近の画像もっと見る

コメントを投稿

ブログ作成者から承認されるまでコメントは反映されません。

TAF」カテゴリの最新記事